Time;durP1;ratioP1;P1;durP2;ratioP2;P2;SDS_P1;SDS_P2;PMS_P1;PMS_P2;Temp;Humidity;BMP_temperature;BMP_pressure;BME280_temperature;BME280_humidity;BME280_pressure;Samples;Min_cycle;Max_cycle;Signal;HPM_P1;HPM_P2
2024/04/05 00:01:45;;;;;;;;;;;;;;;;;;5081385;28;20027;-71
2024/04/05 00:04:10;;;;;;;;;;;;;;;;;;5080502;28;20352;-71
2024/04/05 00:06:38;;;;;;;;;;;;;;;;;;5080647;28;19920;-71
2024/04/05 00:09:07;;;;;;;;;;;;;;;;;;5077579;28;20020;-71
2024/04/05 00:11:32;;;;;;;;;;;;;;;;;;5079993;28;19920;-73
2024/04/05 00:13:57;;;;;;;;;;;;;;;;;;5063104;28;19916;-73
2024/04/05 00:16:22;;;;;;;;;;;;;;;;;;5081749;28;19964;-73
2024/04/05 00:18:50;;;;;;;;;;;;;;;;;;5081295;28;20136;-73
2024/04/05 00:21:15;;;;;;;;;;;;;;;;;;5083125;28;19915;-74
2024/04/05 00:23:40;;;;;;;;;;;;;;;;;;5078996;28;20267;-74
2024/04/05 00:26:05;;;;;;;;;;;;;;;;;;5080978;28;20394;-74
2024/04/05 00:28:31;;;;;;;;;;;;;;;;;;5080148;28;20020;-75
2024/04/05 00:30:59;;;;;;;;;;;;;;;;;;5065813;28;19946;-74
2024/04/05 00:33:26;;;;;;;;;;;;;;;;;;5079940;28;19951;-74
2024/04/05 00:35:52;;;;;;;;;;;;;;;;;;5064691;28;19912;-74
2024/04/05 00:38:17;;;;;;;;;;;;;;;;;;5062373;28;21505;-74
2024/04/05 00:40:42;;;;;;;;;;;;;;;;;;5064044;28;19919;-74
2024/04/05 00:43:10;;;;;;;;;;;;;;;;;;5080295;28;19920;-76
2024/04/05 00:45:35;;;;;;;;;;;;;;;;;;5082873;28;20619;-76
2024/04/05 00:48:01;;;;;;;;;;;;;;;;;;5080430;28;19924;-76
2024/04/05 00:50:30;;;;;;;;;;;;;;;;;;5080822;28;20383;-76
2024/04/05 00:52:55;;;;;;;;;;;;;;;;;;5083432;28;19920;-75
2024/04/05 00:55:20;;;;;;;;;;;;;;;;;;5079573;28;20485;-74
2024/04/05 00:57:46;;;;;;;;;;;;;;;;;;5081735;28;19947;-73
2024/04/05 01:00:14;;;;;;;;;;;;;;;;;;5080003;28;20135;-75
2024/04/05 01:02:42;;;;;;;;;;;;;;;;;;5080756;28;19920;-75
2024/04/05 01:05:07;;;;;;;;;;;;;;;;;;5082451;28;19916;-74
2024/04/05 01:07:35;;;;;;;;;;;;;;;;;;5079393;28;21712;-73
2024/04/05 01:10:03;;;;;;;;;;;;;;;;;;5081705;28;19920;-76
2024/04/05 01:12:29;;;;;;;;;;;;;;;;;;5079954;28;19916;-74
2024/04/05 01:14:57;;;;;;;;;;;;;;;;;;5080442;28;19920;-74
2024/04/05 01:17:22;;;;;;;;;;;;;;;;;;5079071;28;19926;-74
2024/04/05 01:19:48;;;;;;;;;;;;;;;;;;5080987;28;20587;-75
2024/04/05 01:22:13;;;;;;;;;;;;;;;;;;5079584;28;20375;-75
2024/04/05 01:24:38;;;;;;;;;;;;;;;;;;5080581;28;20280;-76
2024/04/05 01:27:03;;;;;;;;;;;;;;;;;;5078881;28;19928;-75
2024/04/05 01:29:31;;;;;;;;;;;;;;;;;;5079804;28;20374;-75
2024/04/05 01:31:56;;;;;;;;;;;;;;;;;;5076217;28;19970;-75
2024/04/05 01:34:24;;;;;;;;;;;;;;;;;;5079025;28;19962;-78
2024/04/05 01:36:49;;;;;;;;;;;;;;;;;;5061318;28;20003;-74
2024/04/05 01:39:15;;;;;;;;;;;;;;;;;;5081246;28;20358;-73
2024/04/05 01:41:40;;;;;;;;;;;;;;;;;;5079071;28;20631;-73
2024/04/05 01:44:05;;;;;;;;;;;;;;;;;;5079281;28;20485;-75
2024/04/05 01:46:30;;;;;;;;;;;;;;;;;;5076326;28;20041;-75
2024/04/05 01:48:56;;;;;;;;;;;;;;;;;;5080635;28;20420;-76
2024/04/05 01:51:21;;;;;;;;;;;;;;;;;;5078911;28;20409;-76
2024/04/05 01:53:46;;;;;;;;;;;;;;;;;;5080482;28;20517;-75
2024/04/05 01:56:14;;;;;;;;;;;;;;;;;;5079274;28;20133;-74
2024/04/05 01:58:39;;;;;;;;;;;;;;;;;;5077921;28;19979;-75
2024/04/05 02:01:05;;;;;;;;;;;;;;;;;;5077291;28;20096;-75
2024/04/05 02:03:30;;;;;;;;;;;;;;;;;;5078814;28;19923;-74
2024/04/05 02:05:55;;;;;;;;;;;;;;;;;;5080090;28;19963;-76
2024/04/05 02:08:23;;;;;;;;;;;;;;;;;;5079792;28;19920;-75
2024/04/05 02:10:50;;;;;;;;;;;;;;;;;;5079899;28;20455;-73
2024/04/05 02:13:18;;;;;;;;;;;;;;;;;;5079399;28;19930;-73
2024/04/05 02:15:44;;;;;;;;;;;;;;;;;;5064997;28;19920;-74
2024/04/05 02:18:10;;;;;;;;;;;;;;;;;;5078399;28;19920;-74
2024/04/05 02:20:40;;;;;;;;;;;;;;;;;;5079168;28;19951;-75
2024/04/05 02:23:08;;;;;;;;;;;;;;;;;;5078775;28;20391;-75
2024/04/05 02:25:36;;;;;;;;;;;;;;;;;;5078112;28;19985;-74
2024/04/05 02:28:01;;;;;;;;;;;;;;;;;;5079692;28;19924;-72
2024/04/05 02:30:30;;;;;;;;;;;;;;;;;;5078161;28;20896;-75
2024/04/05 02:32:57;;;;;;;;;;;;;;;;;;5076120;28;19920;-75
2024/04/05 02:35:22;;;;;;;;;;;;;;;;;;5063618;28;19928;-75
2024/04/05 02:37:48;;;;;;;;;;;;;;;;;;5079863;28;19915;-75
2024/04/05 02:40:13;;;;;;;;;;;;;;;;;;5065559;28;19916;-73
2024/04/05 02:42:38;;;;;;;;;;;;;;;;;;5082682;28;19931;-75
2024/04/05 02:45:03;;;;;;;;;;;;;;;;;;5082893;28;19922;-75
2024/04/05 02:47:29;;;;;;;;;;;;;;;;;;5080866;28;19920;-76
2024/04/05 02:49:57;;;;;;;;;;;;;;;;;;5084148;28;19959;-77
2024/04/05 02:52:22;;;;;;;;;;;;;;;;;;5080819;28;20007;-76
2024/04/05 02:54:47;;;;;;;;;;;;;;;;;;5082779;28;19920;-75
2024/04/05 02:57:13;;;;;;;;;;;;;;;;;;5099595;27;19972;-75
2024/04/05 02:59:40;;;;;;;;;;;;;;;;;;5080840;28;20008;-77
2024/04/05 03:02:09;;;;;;;;;;;;;;;;;;5081826;28;19915;-76
2024/04/05 03:04:34;;;;;;;;;;;;;;;;;;5084804;28;19942;-74
2024/04/05 03:07:04;;;;;;;;;;;;;;;;;;5082589;28;19920;-74
2024/04/05 03:09:32;;;;;;;;;;;;;;;;;;5082434;28;20185;-73
2024/04/05 03:12:00;;;;;;;;;;;;;;;;;;5064368;28;20374;-75
2024/04/05 03:14:25;;;;;;;;;;;;;;;;;;5083338;28;19927;-75
2024/04/05 03:16:53;;;;;;;;;;;;;;;;;;5063111;28;20397;-75
2024/04/05 03:19:19;;;;;;;;;;;;;;;;;;5083795;28;19920;-75
2024/04/05 03:21:44;;;;;;;;;;;;;;;;;;5082739;28;19919;-75
2024/04/05 03:24:09;;;;;;;;;;;;;;;;;;5083211;28;19920;-74
2024/04/05 03:26:39;;;;;;;;;;;;;;;;;;5082402;28;19927;-77
2024/04/05 03:29:07;;;;;;;;;;;;;;;;;;5083743;28;19928;-77
2024/04/05 03:31:34;;;;;;;;;;;;;;;;;;5080839;28;20286;-77
2024/04/05 03:34:00;;;;;;;;;;;;;;;;;;5082809;28;20418;-77
2024/04/05 03:36:25;;;;;;;;;;;;;;;;;;5083139;28;19999;-75
2024/04/05 03:38:50;;;;;;;;;;;;;;;;;;5080150;28;20208;-75
2024/04/05 03:41:15;;;;;;;;;;;;;;;;;;5064841;28;19960;-77
2024/04/05 03:43:41;;;;;;;;;;;;;;;;;;5082290;28;20010;-76
2024/04/05 03:46:08;;;;;;;;;;;;;;;;;;5081742;28;20323;-76
2024/04/05 03:48:36;;;;;;;;;;;;;;;;;;5079616;28;19935;-76
2024/04/05 03:51:01;;;;;;;;;;;;;;;;;;5081358;28;19968;-74
2024/04/05 03:53:29;;;;;;;;;;;;;;;;;;5083039;28;19933;-74
2024/04/05 03:55:58;;;;;;;;;;;;;;;;;;5082147;28;20156;-75
2024/04/05 03:58:24;;;;;;;;;;;;;;;;;;5082808;28;20318;-76
2024/04/05 04:00:51;;;;;;;;;;;;;;;;;;5079190;28;19919;-76
2024/04/05 04:03:17;;;;;;;;;;;;;;;;;;5080087;28;19916;-74
2024/04/05 04:05:42;;;;;;;;;;;;;;;;;;5063190;28;19926;-76
2024/04/05 04:08:07;;;;;;;;;;;;;;;;;;5082447;28;19923;-75
2024/04/05 04:10:32;;;;;;;;;;;;;;;;;;5081790;28;19916;-75
2024/04/05 04:13:00;;;;;;;;;;;;;;;;;;5080952;28;19916;-75
2024/04/05 04:15:27;;;;;;;;;;;;;;;;;;5081657;28;19916;-74
2024/04/05 04:17:58;;;;;;;;;;;;;;;;;;5081421;28;19958;-75
2024/04/05 04:20:23;;;;;;;;;;;;;;;;;;5080168;28;20505;-75
2024/04/05 04:22:48;;;;;;;;;;;;;;;;;;5082020;28;19990;-75
2024/04/05 04:25:16;;;;;;;;;;;;;;;;;;5081724;28;20260;-75
2024/04/05 04:27:48;;;;;;;;;;;;;;;;;;5080945;28;19922;-75
2024/04/05 04:30:13;;;;;;;;;;;;;;;;;;5082461;28;20663;-73
2024/04/05 04:32:42;;;;;;;;;;;;;;;;;;5080345;28;19912;-72
2024/04/05 04:35:10;;;;;;;;;;;;;;;;;;5079907;28;19940;-72
2024/04/05 04:37:38;;;;;;;;;;;;;;;;;;5080237;28;19916;-73
2024/04/05 04:40:03;;;;;;;;;;;;;;;;;;5081689;28;19939;-73
2024/04/05 04:42:31;;;;;;;;;;;;;;;;;;5080318;28;20272;-73
2024/04/05 04:44:57;;;;;;;;;;;;;;;;;;5080793;28;19920;-74
2024/04/05 04:47:25;;;;;;;;;;;;;;;;;;5079100;28;19920;-75
2024/04/05 04:49:50;;;;;;;;;;;;;;;;;;5082416;28;20017;-74
2024/04/05 04:52:15;;;;;;;;;;;;;;;;;;5063217;28;19925;-74
2024/04/05 04:54:43;;;;;;;;;;;;;;;;;;5080684;28;19916;-74
2024/04/05 04:57:11;;;;;;;;;;;;;;;;;;5079892;28;20867;-73
2024/04/05 04:59:39;;;;;;;;;;;;;;;;;;5079855;28;20362;-74
2024/04/05 05:02:04;;;;;;;;;;;;;;;;;;5077814;28;20352;-72
2024/04/05 05:04:35;;;;;;;;;;;;;;;;;;5079505;28;19915;-72
2024/04/05 05:07:01;;;;;;;;;;;;;;;;;;5079072;28;20416;-74
2024/04/05 05:09:26;;;;;;;;;;;;;;;;;;5080014;28;20050;-72
2024/04/05 05:11:54;;;;;;;;;;;;;;;;;;5078827;28;19916;-72
2024/04/05 05:14:19;;;;;;;;;;;;;;;;;;5081286;28;19970;-73
2024/04/05 05:16:44;;;;;;;;;;;;;;;;;;5076396;28;19998;-72
2024/04/05 05:19:12;;;;;;;;;;;;;;;;;;5081833;28;19942;-72
2024/04/05 05:21:43;;;;;;;;;;;;;;;;;;5079755;28;20083;-73
2024/04/05 05:24:09;;;;;;;;;;;;;;;;;;5063679;28;19920;-72
2024/04/05 05:26:34;;;;;;;;;;;;;;;;;;5078367;28;19927;-72
2024/04/05 05:29:02;;;;;;;;;;;;;;;;;;5079880;28;20002;-73
2024/04/05 05:31:30;;;;;;;;;;;;;;;;;;5078700;28;20009;-72
2024/04/05 05:33:55;;;;;;;;;;;;;;;;;;5081368;28;19916;-72
2024/04/05 05:36:23;;;;;;;;;;;;;;;;;;5062803;28;19931;-73
2024/04/05 05:38:51;;;;;;;;;;;;;;;;;;5080671;28;19920;-74
2024/04/05 05:44:35;;;;;;;;;;;;;;;;;;5081148;28;19927;-72
2024/04/05 05:47:00;;;;;;;;;;;;;;;;;;5080738;28;20279;-72
2024/04/05 05:49:26;;;;;;;;;;;;;;;;;;5079538;28;19920;-72
2024/04/05 05:51:56;;;;;;;;;;;;;;;;;;5081500;28;19920;-72
2024/04/05 05:54:21;;;;;;;;;;;;;;;;;;5078776;28;20024;-72
2024/04/05 05:56:53;;;;;;;;;;;;;;;;;;5082314;28;19916;-74
2024/04/05 05:59:18;;;;;;;;;;;;;;;;;;5079518;28;20019;-72
2024/04/05 06:01:46;;;;;;;;;;;;;;;;;;5078910;28;20346;-74
2024/04/05 06:04:14;;;;;;;;;;;;;;;;;;5077721;28;19920;-74
2024/04/05 06:06:44;;;;;;;;;;;;;;;;;;5081738;28;19916;-74
2024/04/05 06:09:13;;;;;;;;;;;;;;;;;;5079727;28;20139;-74
2024/04/05 06:11:39;;;;;;;;;;;;;;;;;;5079975;28;19916;-74
2024/04/05 06:14:04;;;;;;;;;;;;;;;;;;5079449;28;20428;-73
2024/04/05 06:16:31;;;;;;;;;;;;;;;;;;5080439;28;20220;-74
2024/04/05 06:18:59;;;;;;;;;;;;;;;;;;5079226;28;19916;-73
2024/04/05 06:21:25;;;;;;;;;;;;;;;;;;5078018;28;19923;-73
2024/04/05 06:23:53;;;;;;;;;;;;;;;;;;5080071;28;19920;-73
2024/04/05 06:26:21;;;;;;;;;;;;;;;;;;5078623;28;19920;-74
2024/04/05 06:28:52;;;;;;;;;;;;;;;;;;5080463;28;20375;-74
2024/04/05 06:31:22;;;;;;;;;;;;;;;;;;5061147;28;21547;-72
2024/04/05 06:33:50;;;;;;;;;;;;;;;;;;5080268;28;19916;-74
2024/04/05 06:36:21;;;;;;;;;;;;;;;;;;5077566;28;19920;-73
2024/04/05 06:38:46;;;;;;;;;;;;;;;;;;5078197;28;19920;-73
2024/04/05 06:41:11;;;;;;;;;;;;;;;;;;5078809;28;19916;-73
2024/04/05 06:43:39;;;;;;;;;;;;;;;;;;5080021;28;19920;-73
2024/04/05 06:46:05;;;;;;;;;;;;;;;;;;5078737;28;20527;-73
2024/04/05 06:48:30;;;;;;;;;;;;;;;;;;5071751;28;19924;-73
2024/04/05 06:53:53;;;;;;;;;;;;;;;;;;5079508;28;20367;-73
2024/04/05 06:56:18;;;;;;;;;;;;;;;;;;5077078;28;20075;-72
2024/04/05 06:58:46;;;;;;;;;;;;;;;;;;5078326;28;19920;-72
2024/04/05 07:01:15;;;;;;;;;;;;;;;;;;5078283;28;19916;-74
2024/04/05 07:03:43;;;;;;;;;;;;;;;;;;5078394;28;20784;-73
2024/04/05 07:06:11;;;;;;;;;;;;;;;;;;5077243;28;19920;-72
2024/04/05 07:08:41;;;;;;;;;;;;;;;;;;5078461;28;19919;-72
2024/04/05 07:11:10;;;;;;;;;;;;;;;;;;5078251;28;20067;-74
2024/04/05 07:13:38;;;;;;;;;;;;;;;;;;5079856;28;20376;-74
2024/04/05 07:16:06;;;;;;;;;;;;;;;;;;5076963;28;19920;-75
2024/04/05 07:18:34;;;;;;;;;;;;;;;;;;5058861;28;19957;-74
2024/04/05 07:20:59;;;;;;;;;;;;;;;;;;5078161;28;19916;-75
2024/04/05 07:23:24;;;;;;;;;;;;;;;;;;5080806;28;20596;-75
2024/04/05 07:25:55;;;;;;;;;;;;;;;;;;5082864;28;20404;-76
2024/04/05 07:28:22;;;;;;;;;;;;;;;;;;5066381;28;19974;-74
2024/04/05 07:30:52;;;;;;;;;;;;;;;;;;5082965;28;20007;-73
2024/04/05 07:33:18;;;;;;;;;;;;;;;;;;5083903;28;19923;-78
2024/04/05 07:35:46;;;;;;;;;;;;;;;;;;5082133;28;19916;-74
2024/04/05 07:38:11;;;;;;;;;;;;;;;;;;5088027;27;20425;-77
2024/04/05 07:40:36;;;;;;;;;;;;;;;;;;5082934;28;20054;-76
2024/04/05 07:43:04;;;;;;;;;;;;;;;;;;5069238;28;19955;-76
2024/04/05 07:45:29;;;;;;;;;;;;;;;;;;5082639;28;20608;-75
2024/04/05 07:47:55;;;;;;;;;;;;;;;;;;5083318;28;19919;-73
2024/04/05 07:50:20;;;;;;;;;;;;;;;;;;5083424;28;20801;-76
2024/04/05 07:52:47;;;;;;;;;;;;;;;;;;5083084;28;19966;-77
2024/04/05 07:55:13;;;;;;;;;;;;;;;;;;5066707;28;19916;-75
2024/04/05 07:57:38;;;;;;;;;;;;;;;;;;5081988;28;19920;-76
2024/04/05 08:00:05;;;;;;;;;;;;;;;;;;5081718;28;20487;-74
2024/04/05 08:02:33;;;;;;;;;;;;;;;;;;5079951;28;19969;-75
2024/04/05 08:05:01;;;;;;;;;;;;;;;;;;5066686;28;20370;-74
2024/04/05 08:07:31;;;;;;;;;;;;;;;;;;5062939;28;19924;-74
2024/04/05 08:10:01;;;;;;;;;;;;;;;;;;5080570;28;19946;-74
2024/04/05 08:12:30;;;;;;;;;;;;;;;;;;5083999;28;20382;-74
2024/04/05 08:14:55;;;;;;;;;;;;;;;;;;5081599;28;19927;-74
2024/04/05 08:17:20;;;;;;;;;;;;;;;;;;5080011;28;20020;-74
2024/04/05 08:19:46;;;;;;;;;;;;;;;;;;5083668;28;19926;-73
2024/04/05 08:22:11;;;;;;;;;;;;;;;;;;5076424;28;20011;-72
2024/04/05 08:24:36;;;;;;;;;;;;;;;;;;5084153;28;19920;-72
2024/04/05 08:27:02;;;;;;;;;;;;;;;;;;5080579;28;20374;-72
2024/04/05 08:29:27;;;;;;;;;;;;;;;;;;5066217;28;19953;-72
2024/04/05 08:31:53;;;;;;;;;;;;;;;;;;5080124;28;20359;-72
2024/04/05 08:34:21;;;;;;;;;;;;;;;;;;5078335;28;20114;-71
2024/04/05 08:36:49;;;;;;;;;;;;;;;;;;5081966;28;19937;-70
2024/04/05 08:39:17;;;;;;;;;;;;;;;;;;5081535;28;20260;-71
2024/04/05 08:41:42;;;;;;;;;;;;;;;;;;5082094;28;19920;-72
2024/04/05 08:44:12;;;;;;;;;;;;;;;;;;5064746;28;19920;-72
2024/04/05 08:46:37;;;;;;;;;;;;;;;;;;5080832;28;19920;-71
2024/04/05 08:49:06;;;;;;;;;;;;;;;;;;5079997;28;19924;-71
2024/04/05 08:51:31;;;;;;;;;;;;;;;;;;5082781;28;19920;-70
2024/04/05 08:53:57;;;;;;;;;;;;;;;;;;5082052;28;19913;-71
2024/04/05 08:56:22;;;;;;;;;;;;;;;;;;5077620;28;19933;-71
2024/04/05 08:58:49;;;;;;;;;;;;;;;;;;5082640;28;19927;-71
2024/04/05 09:01:17;;;;;;;;;;;;;;;;;;5076217;28;20286;-71
2024/04/05 09:03:45;;;;;;;;;;;;;;;;;;5082354;28;20014;-70
2024/04/05 09:06:12;;;;;;;;;;;;;;;;;;5064069;28;20446;-71
2024/04/05 09:08:37;;;;;;;;;;;;;;;;;;5079534;28;19922;-72
2024/04/05 09:11:06;;;;;;;;;;;;;;;;;;5080612;28;19920;-71
2024/04/05 09:13:32;;;;;;;;;;;;;;;;;;5079262;28;19982;-68
2024/04/05 09:16:01;;;;;;;;;;;;;;;;;;5078371;28;20423;-70
2024/04/05 09:18:26;;;;;;;;;;;;;;;;;;5079674;28;20002;-70
2024/04/05 09:20:52;;;;;;;;;;;;;;;;;;5080825;28;19922;-71
2024/04/05 09:23:20;;;;;;;;;;;;;;;;;;5079954;28;19920;-69
2024/04/05 09:25:45;;;;;;;;;;;;;;;;;;5080351;28;19916;-70
2024/04/05 09:28:10;;;;;;;;;;;;;;;;;;5079378;28;20309;-71
2024/04/05 09:30:35;;;;;;;;;;;;;;;;;;5080359;28;20447;-73
2024/04/05 09:33:06;;;;;;;;;;;;;;;;;;5077909;28;20381;-71
2024/04/05 09:35:31;;;;;;;;;;;;;;;;;;5067572;28;19928;-71
2024/04/05 09:37:58;;;;;;;;;;;;;;;;;;5062853;28;19920;-72
2024/04/05 09:40:23;;;;;;;;;;;;;;;;;;5080506;28;20087;-72
2024/04/05 09:42:51;;;;;;;;;;;;;;;;;;5079952;28;20686;-69
2024/04/05 09:45:16;;;;;;;;;;;;;;;;;;5080355;28;19947;-71
2024/04/05 09:50:58;;;;;;;;;;;;;;;;;;5078105;28;20004;-69
2024/04/05 09:56:40;;;;;;;;;;;;;;;;;;5081555;28;20409;-69
2024/04/05 09:59:08;;;;;;;;;;;;;;;;;;5062371;28;20054;-70
2024/04/05 10:01:34;;;;;;;;;;;;;;;;;;5062383;28;19948;-67
2024/04/05 10:03:59;;;;;;;;;;;;;;;;;;5079173;28;19920;-69
2024/04/05 10:06:26;;;;;;;;;;;;;;;;;;5079341;28;19921;-73
2024/04/05 10:08:54;;;;;;;;;;;;;;;;;;5066433;28;19916;-74
2024/04/05 10:11:20;;;;;;;;;;;;;;;;;;5079945;28;20295;-72
2024/04/05 10:13:48;;;;;;;;;;;;;;;;;;5067613;28;20292;-73
2024/04/05 10:16:15;;;;;;;;;;;;;;;;;;5078192;28;19928;-73
2024/04/05 10:18:42;;;;;;;;;;;;;;;;;;5079790;28;19924;-74
2024/04/05 10:21:11;;;;;;;;;;;;;;;;;;5082119;28;20422;-69
2024/04/05 10:23:36;;;;;;;;;;;;;;;;;;5077756;28;19938;-72
2024/04/05 10:26:01;;;;;;;;;;;;;;;;;;5066563;28;20442;-72
2024/04/05 10:28:29;;;;;;;;;;;;;;;;;;5056137;28;20409;-73
2024/04/05 10:30:55;;;;;;;;;;;;;;;;;;5079317;28;19916;-71
2024/04/05 10:33:26;;;;;;;;;;;;;;;;;;5068036;28;19920;-69
2024/04/05 10:35:51;;;;;;;;;;;;;;;;;;5079512;28;19966;-70
2024/04/05 10:38:16;;;;;;;;;;;;;;;;;;5078157;28;20046;-68
2024/04/05 10:40:41;;;;;;;;;;;;;;;;;;5063824;28;19916;-70
2024/04/05 10:43:07;;;;;;;;;;;;;;;;;;5077933;28;19939;-69
2024/04/05 10:45:32;;;;;;;;;;;;;;;;;;5081668;28;20290;-70
2024/04/05 10:51:14;;;;;;;;;;;;;;;;;;5078692;28;19974;-74
2024/04/05 10:53:42;;;;;;;;;;;;;;;;;;5080148;28;19919;-70
2024/04/05 10:56:11;;;;;;;;;;;;;;;;;;5078879;28;20043;-71
2024/04/05 10:58:37;;;;;;;;;;;;;;;;;;5082781;28;19916;-75
2024/04/05 11:01:02;;;;;;;;;;;;;;;;;;5082401;28;20295;-72
2024/04/05 11:03:39;;;;;;;;;;;;;;;;;;5085046;28;19924;-73
2024/04/05 11:06:05;;;;;;;;;;;;;;;;;;5083243;28;20366;-72
2024/04/05 11:08:33;;;;;;;;;;;;;;;;;;5082560;28;20374;-74
2024/04/05 11:11:07;;;;;;;;;;;;;;;;;;5082167;28;19916;-75
2024/04/05 11:13:35;;;;;;;;;;;;;;;;;;5084081;28;19916;-73
2024/04/05 11:16:04;;;;;;;;;;;;;;;;;;5064385;28;19927;-73
2024/04/05 11:18:29;;;;;;;;;;;;;;;;;;5082997;28;19916;-73
2024/04/05 11:20:54;;;;;;;;;;;;;;;;;;5066034;28;21868;-73
2024/04/05 11:23:21;;;;;;;;;;;;;;;;;;5081708;28;20371;-74
2024/04/05 11:25:47;;;;;;;;;;;;;;;;;;5082900;28;19920;-75
2024/04/05 11:28:15;;;;;;;;;;;;;;;;;;5080464;28;20119;-73
2024/04/05 11:30:43;;;;;;;;;;;;;;;;;;5066263;28;20354;-74
2024/04/05 11:33:11;;;;;;;;;;;;;;;;;;5081373;28;20046;-71
2024/04/05 11:35:38;;;;;;;;;;;;;;;;;;5084317;28;19924;-77
2024/04/05 11:38:04;;;;;;;;;;;;;;;;;;5083359;28;19923;-76
2024/04/05 11:40:29;;;;;;;;;;;;;;;;;;5065337;28;19920;-76
2024/04/05 11:42:57;;;;;;;;;;;;;;;;;;5081650;28;20001;-71
2024/04/05 11:45:25;;;;;;;;;;;;;;;;;;5082293;28;20375;-71
2024/04/05 11:47:50;;;;;;;;;;;;;;;;;;5063642;28;19927;-72
2024/04/05 11:50:18;;;;;;;;;;;;;;;;;;5083180;28;19924;-72
2024/04/05 11:52:47;;;;;;;;;;;;;;;;;;5082645;28;19920;-75
2024/04/05 11:55:12;;;;;;;;;;;;;;;;;;5080187;28;20431;-72
2024/04/05 11:57:38;;;;;;;;;;;;;;;;;;5080694;28;19935;-70
2024/04/05 12:00:12;;;;;;;;;;;;;;;;;;5064177;28;19970;-69
2024/04/05 12:02:38;;;;;;;;;;;;;;;;;;5082392;28;19920;-69
2024/04/05 12:05:03;;;;;;;;;;;;;;;;;;5082179;28;19916;-71
2024/04/05 12:07:28;;;;;;;;;;;;;;;;;;5063253;28;19976;-72
2024/04/05 12:09:53;;;;;;;;;;;;;;;;;;5081726;28;19920;-69
2024/04/05 12:12:21;;;;;;;;;;;;;;;;;;5079352;28;19988;-68
2024/04/05 12:14:46;;;;;;;;;;;;;;;;;;5082167;28;20554;-69
2024/04/05 12:17:11;;;;;;;;;;;;;;;;;;5063822;28;20022;-68
2024/04/05 12:19:40;;;;;;;;;;;;;;;;;;5081039;28;20379;-68
2024/04/05 12:22:05;;;;;;;;;;;;;;;;;;5080945;28;20018;-71
2024/04/05 12:24:30;;;;;;;;;;;;;;;;;;5081150;28;20558;-69
2024/04/05 12:26:57;;;;;;;;;;;;;;;;;;5082442;28;19939;-69
2024/04/05 12:29:22;;;;;;;;;;;;;;;;;;5080956;28;20578;-71
2024/04/05 12:31:50;;;;;;;;;;;;;;;;;;5080678;28;19923;-70
2024/04/05 12:37:37;;;;;;;;;;;;;;;;;;5080037;28;19962;-73
2024/04/05 12:40:14;;;;;;;;;;;;;;;;;;5065120;28;19920;-72
2024/04/05 12:42:39;;;;;;;;;;;;;;;;;;5064202;28;19934;-71
2024/04/05 12:45:08;;;;;;;;;;;;;;;;;;5082343;28;20402;-72
2024/04/05 12:47:35;;;;;;;;;;;;;;;;;;5079303;28;19924;-75
2024/04/05 12:50:00;;;;;;;;;;;;;;;;;;5082032;28;19988;-70
2024/04/05 12:52:28;;;;;;;;;;;;;;;;;;5075673;28;19922;-72
2024/04/05 12:54:53;;;;;;;;;;;;;;;;;;5080079;28;19920;-74
2024/04/05 12:57:23;;;;;;;;;;;;;;;;;;5063416;28;19919;-74
2024/04/05 12:59:48;;;;;;;;;;;;;;;;;;5079950;28;20390;-77
2024/04/05 13:02:16;;;;;;;;;;;;;;;;;;5078185;28;19916;-74
2024/04/05 13:04:44;;;;;;;;;;;;;;;;;;5081589;28;20440;-70
2024/04/05 13:07:09;;;;;;;;;;;;;;;;;;5082789;28;19912;-72
2024/04/05 13:09:35;;;;;;;;;;;;;;;;;;5080271;28;19927;-73
2024/04/05 13:12:03;;;;;;;;;;;;;;;;;;5078383;28;19926;-75
2024/04/05 13:14:28;;;;;;;;;;;;;;;;;;5080724;28;19969;-76
2024/04/05 13:16:55;;;;;;;;;;;;;;;;;;5082099;28;20151;-80
2024/04/05 13:19:23;;;;;;;;;;;;;;;;;;5081220;28;19920;-76
2024/04/05 13:21:51;;;;;;;;;;;;;;;;;;5080405;28;20401;-78
2024/04/05 13:24:19;;;;;;;;;;;;;;;;;;5080614;28;19955;-75
2024/04/05 13:26:45;;;;;;;;;;;;;;;;;;5079460;28;20026;-71
2024/04/05 13:29:10;;;;;;;;;;;;;;;;;;5080726;28;20526;-70
2024/04/05 13:31:37;;;;;;;;;;;;;;;;;;5079917;28;19976;-68
2024/04/05 13:34:06;;;;;;;;;;;;;;;;;;5081302;28;19920;-70
2024/04/05 13:36:31;;;;;;;;;;;;;;;;;;5079451;28;20377;-69
2024/04/05 13:38:59;;;;;;;;;;;;;;;;;;5080819;28;19965;-69
2024/04/05 13:41:27;;;;;;;;;;;;;;;;;;5081633;28;19950;-68
2024/04/05 13:43:54;;;;;;;;;;;;;;;;;;5080180;28;19970;-69
2024/04/05 13:46:22;;;;;;;;;;;;;;;;;;5078537;28;19939;-69
2024/04/05 13:48:47;;;;;;;;;;;;;;;;;;5078040;28;19928;-67
2024/04/05 13:51:14;;;;;;;;;;;;;;;;;;5076575;28;20410;-67
2024/04/05 13:53:42;;;;;;;;;;;;;;;;;;5079393;28;20018;-69
2024/04/05 13:56:10;;;;;;;;;;;;;;;;;;5078618;28;19995;-68
2024/04/05 13:58:38;;;;;;;;;;;;;;;;;;5080158;28;20186;-71
2024/04/05 14:01:04;;;;;;;;;;;;;;;;;;5079913;28;19915;-70
2024/04/05 14:03:32;;;;;;;;;;;;;;;;;;5080495;28;19920;-68
2024/04/05 14:05:57;;;;;;;;;;;;;;;;;;5078718;28;19978;-71
2024/04/05 14:08:31;;;;;;;;;;;;;;;;;;5078273;28;19924;-67
2024/04/05 14:11:00;;;;;;;;;;;;;;;;;;5078219;28;19920;-70
2024/04/05 14:13:29;;;;;;;;;;;;;;;;;;5079679;28;19920;-70
2024/04/05 14:15:54;;;;;;;;;;;;;;;;;;5081268;28;19943;-75
2024/04/05 14:18:19;;;;;;;;;;;;;;;;;;5079160;28;20571;-69
2024/04/05 14:20:44;;;;;;;;;;;;;;;;;;5080967;28;20287;-73
2024/04/05 14:23:12;;;;;;;;;;;;;;;;;;5078741;28;20054;-68
2024/04/05 14:25:40;;;;;;;;;;;;;;;;;;5068155;28;19920;-66
2024/04/05 14:28:06;;;;;;;;;;;;;;;;;;5077799;28;19920;-77
2024/04/05 14:33:51;;;;;;;;;;;;;;;;;;5084878;28;19999;-74
2024/04/05 14:36:20;;;;;;;;;;;;;;;;;;5082734;28;20355;-73
2024/04/05 14:38:45;;;;;;;;;;;;;;;;;;5083201;28;19919;-70
2024/04/05 14:41:10;;;;;;;;;;;;;;;;;;5067034;28;20026;-69
2024/04/05 14:43:35;;;;;;;;;;;;;;;;;;5082161;28;20013;-67
2024/04/05 14:46:03;;;;;;;;;;;;;;;;;;5081180;28;20616;-72
2024/04/05 14:48:31;;;;;;;;;;;;;;;;;;5082689;28;20191;-69
2024/04/05 14:50:56;;;;;;;;;;;;;;;;;;5084468;28;20022;-68
2024/04/05 14:53:21;;;;;;;;;;;;;;;;;;5081437;28;19920;-73
2024/04/05 14:55:47;;;;;;;;;;;;;;;;;;5084096;28;19941;-68
2024/04/05 14:58:15;;;;;;;;;;;;;;;;;;5082647;28;20003;-70
2024/04/05 15:00:43;;;;;;;;;;;;;;;;;;5082322;28;19920;-77
2024/04/05 15:03:08;;;;;;;;;;;;;;;;;;5080708;28;20770;-71
2024/04/05 15:05:33;;;;;;;;;;;;;;;;;;5085603;28;20014;-71
2024/04/05 15:08:04;;;;;;;;;;;;;;;;;;5083352;28;20379;-68
2024/04/05 15:10:30;;;;;;;;;;;;;;;;;;5080378;28;20307;-71
2024/04/05 15:12:55;;;;;;;;;;;;;;;;;;5081221;28;19916;-69
2024/04/05 15:15:21;;;;;;;;;;;;;;;;;;5080114;28;22004;-72
2024/04/05 15:17:51;;;;;;;;;;;;;;;;;;5081592;28;19969;-67
2024/04/05 15:20:19;;;;;;;;;;;;;;;;;;5065348;28;19951;-67
2024/04/05 15:22:44;;;;;;;;;;;;;;;;;;5081762;28;20010;-68
2024/04/05 15:25:12;;;;;;;;;;;;;;;;;;5084435;28;19916;-70
2024/04/05 15:27:38;;;;;;;;;;;;;;;;;;5081186;28;19973;-68
2024/04/05 15:30:06;;;;;;;;;;;;;;;;;;5084799;28;19978;-69
2024/04/05 15:32:32;;;;;;;;;;;;;;;;;;5080335;28;20375;-69
2024/04/05 15:34:57;;;;;;;;;;;;;;;;;;5083602;28;19920;-72
2024/04/05 15:37:22;;;;;;;;;;;;;;;;;;5079403;28;20052;-70
2024/04/05 15:39:47;;;;;;;;;;;;;;;;;;5081686;28;19916;-69
2024/04/05 15:42:13;;;;;;;;;;;;;;;;;;5082165;28;20007;-73
2024/04/05 15:44:38;;;;;;;;;;;;;;;;;;5080587;28;19958;-68
2024/04/05 15:47:04;;;;;;;;;;;;;;;;;;5066003;28;19989;-68
2024/04/05 15:49:29;;;;;;;;;;;;;;;;;;5081584;28;19928;-69
2024/04/05 15:51:54;;;;;;;;;;;;;;;;;;5082587;28;19912;-69
2024/04/05 15:54:20;;;;;;;;;;;;;;;;;;5064401;28;19916;-70
2024/04/05 15:56:45;;;;;;;;;;;;;;;;;;5082867;28;19951;-70
2024/04/05 15:59:13;;;;;;;;;;;;;;;;;;5082161;28;19916;-67
2024/04/05 16:01:41;;;;;;;;;;;;;;;;;;5079653;28;20010;-68
2024/04/05 16:04:11;;;;;;;;;;;;;;;;;;5081324;28;19951;-68
2024/04/05 16:06:37;;;;;;;;;;;;;;;;;;5080549;28;19927;-67
2024/04/05 16:09:04;;;;;;;;;;;;;;;;;;5080526;28;19979;-70
2024/04/05 16:11:33;;;;;;;;;;;;;;;;;;5082474;28;19999;-74
2024/04/05 16:16:43;;;;;;;;;;;;;;;;;;5081110;28;19926;-71
2024/04/05 16:19:09;;;;;;;;;;;;;;;;;;5079546;28;19920;-68
2024/04/05 16:21:37;;;;;;;;;;;;;;;;;;5080879;28;19920;-68
2024/04/05 16:24:05;;;;;;;;;;;;;;;;;;5080281;28;19920;-73
2024/04/05 16:26:30;;;;;;;;;;;;;;;;;;5082609;28;19965;-70
2024/04/05 16:28:56;;;;;;;;;;;;;;;;;;5081201;28;19920;-72
2024/04/05 16:31:21;;;;;;;;;;;;;;;;;;5080357;28;19916;-71
2024/04/05 16:33:49;;;;;;;;;;;;;;;;;;5082826;28;20030;-72
2024/04/05 16:36:16;;;;;;;;;;;;;;;;;;5080483;28;19920;-71
2024/04/05 16:38:42;;;;;;;;;;;;;;;;;;5082203;28;19920;-70
2024/04/05 16:44:24;;;;;;;;;;;;;;;;;;5079672;28;20600;-69
2024/04/05 16:46:50;;;;;;;;;;;;;;;;;;5081657;28;21544;-70
2024/04/05 16:49:15;;;;;;;;;;;;;;;;;;5079775;28;20002;-72
2024/04/05 16:51:40;;;;;;;;;;;;;;;;;;5081921;28;20224;-68
2024/04/05 16:54:06;;;;;;;;;;;;;;;;;;5080406;28;20718;-71
2024/04/05 16:56:32;;;;;;;;;;;;;;;;;;5080612;28;19955;-71
2024/04/05 16:58:58;;;;;;;;;;;;;;;;;;5080514;28;19959;-70
2024/04/05 17:01:26;;;;;;;;;;;;;;;;;;5064825;28;19963;-70
2024/04/05 17:03:55;;;;;;;;;;;;;;;;;;5082610;28;20082;-70
2024/04/05 17:06:23;;;;;;;;;;;;;;;;;;5080845;28;19920;-70
2024/04/05 17:08:52;;;;;;;;;;;;;;;;;;5080729;28;19919;-71
2024/04/05 17:11:21;;;;;;;;;;;;;;;;;;5079236;28;19950;-73